sensor_id;sensor_type;location;lat;lon;timestamp;pressure;altitude;pressure_sealevel;temperature;humidity
32789;BME280;19141;48.980;8.410;2023-05-16T04:22:33;100069.13;;;12.18;100.00
32789;BME280;19141;48.980;8.410;2023-05-16T04:24:58;100068.69;;;12.15;100.00
32789;BME280;19141;48.980;8.410;2023-05-16T04:27:23;100066.22;;;12.13;100.00
32789;BME280;19141;48.980;8.410;2023-05-16T04:29:51;100069.53;;;12.15;100.00
32789;BME280;19141;48.980;8.410;2023-05-16T04:32:16;100073.84;;;12.16;100.00
32789;BME280;19141;48.980;8.410;2023-05-16T04:34:42;100074.97;;;12.07;100.00
32789;BME280;19141;48.980;8.410;2023-05-16T04:37:09;100063.78;;;12.18;100.00
32789;BME280;19141;48.980;8.410;2023-05-16T04:39:35;100077.91;;;12.12;100.00
32789;BME280;19141;48.980;8.410;2023-05-16T04:42:01;100074.03;;;12.15;100.00
32789;BME280;19141;48.980;8.410;2023-05-16T04:44:27;100075.06;;;12.14;100.00
32789;BME280;19141;48.980;8.410;2023-05-16T04:46:52;100077.97;;;12.19;100.00
32789;BME280;19141;48.980;8.410;2023-05-16T04:49:19;100073.22;;;12.00;100.00
32789;BME280;19141;48.980;8.410;2023-05-16T04:51:45;100076.72;;;12.15;100.00
32789;BME280;19141;48.980;8.410;2023-05-16T04:54:11;100084.38;;;12.03;100.00
32789;BME280;19141;48.980;8.410;2023-05-16T04:56:36;100083.16;;;12.06;100.00
32789;BME280;19141;48.980;8.410;2023-05-16T04:59:02;100080.31;;;12.07;100.00
32789;BME280;19141;48.980;8.410;2023-05-16T05:01:28;100080.94;;;12.09;100.00
32789;BME280;19141;48.980;8.410;2023-05-16T05:03:54;100081.34;;;12.06;100.00
32789;BME280;19141;48.980;8.410;2023-05-16T05:06:19;100077.91;;;12.12;100.00
32789;BME280;19141;48.980;8.410;2023-05-16T05:08:45;100084.91;;;12.13;100.00
32789;BME280;19141;48.980;8.410;2023-05-16T05:11:11;100087.59;;;11.99;100.00
32789;BME280;19141;48.980;8.410;2023-05-16T05:13:36;100083.16;;;12.06;100.00
32789;BME280;19141;48.980;8.410;2023-05-16T05:16:01;100092.38;;;12.03;100.00
32789;BME280;19141;48.980;8.410;2023-05-16T05:18:29;100091.00;;;12.07;100.00
32789;BME280;19141;48.980;8.410;2023-05-16T05:20:54;100089.34;;;12.06;100.00
32789;BME280;19141;48.980;8.410;2023-05-16T05:23:20;100089.34;;;12.06;100.00
32789;BME280;19141;48.980;8.410;2023-05-16T05:25:46;100095.59;;;12.13;100.00
32789;BME280;19141;48.980;8.410;2023-05-16T05:28:11;100090.09;;;12.00;100.00
32789;BME280;19141;48.980;8.410;2023-05-16T05:30:37;100093.47;;;12.09;100.00
32789;BME280;19141;48.980;8.410;2023-05-16T05:33:02;100096.84;;;12.17;100.00
32789;BME280;19141;48.980;8.410;2023-05-16T05:35:27;100109.84;;;12.06;100.00
32789;BME280;19141;48.980;8.410;2023-05-16T05:37:53;100107.28;;;11.98;100.00
32789;BME280;19141;48.980;8.410;2023-05-16T05:40:18;100100.38;;;12.03;100.00
32789;BME280;19141;48.980;8.410;2023-05-16T05:42:44;100103.69;;;12.05;100.00
32789;BME280;19141;48.980;8.410;2023-05-16T05:45:10;100107.66;;;12.09;100.00
32789;BME280;19141;48.980;8.410;2023-05-16T05:47:35;100106.81;;;12.09;100.00
32789;BME280;19141;48.980;8.410;2023-05-16T05:50:02;100111.25;;;12.02;100.00
32789;BME280;19141;48.980;8.410;2023-05-16T05:52:27;100113.25;;;12.00;100.00
32789;BME280;19141;48.980;8.410;2023-05-16T05:54:53;100110.88;;;12.05;100.00
32789;BME280;19141;48.980;8.410;2023-05-16T05:57:19;100104.81;;;11.96;100.00
32789;BME280;19141;48.980;8.410;2023-05-16T05:59:44;100115.84;;;11.93;100.00
32789;BME280;19141;48.980;8.410;2023-05-16T06:02:10;100116.31;;;11.97;100.00
32789;BME280;19141;48.980;8.410;2023-05-16T06:04:35;100113.72;;;12.03;100.00
32789;BME280;19141;48.980;8.410;2023-05-16T06:07:01;100120.09;;;12.02;100.00
32789;BME280;19141;48.980;8.410;2023-05-16T06:09:26;100118.97;;;12.11;100.00
32789;BME280;19141;48.980;8.410;2023-05-16T06:11:51;100118.97;;;12.11;100.00
32789;BME280;19141;48.980;8.410;2023-05-16T06:14:17;100111.63;;;12.13;100.00
32789;BME280;19141;48.980;8.410;2023-05-16T06:16:42;100123.19;;;12.20;100.00
32789;BME280;19141;48.980;8.410;2023-05-16T06:19:08;100122.47;;;12.27;100.00
32789;BME280;19141;48.980;8.410;2023-05-16T06:21:33;100128.34;;;12.22;100.00
32789;BME280;19141;48.980;8.410;2023-05-16T06:23:59;100127.06;;;12.33;100.00
32789;BME280;19141;48.980;8.410;2023-05-16T06:26:24;100133.38;;;12.32;100.00
32789;BME280;19141;48.980;8.410;2023-05-16T06:28:49;100134.44;;;12.16;99.79
32789;BME280;19141;48.980;8.410;2023-05-16T06:31:15;100136.34;;;12.22;100.00
32789;BME280;19141;48.980;8.410;2023-05-16T06:33:40;100141.69;;;12.22;100.00
32789;BME280;19141;48.980;8.410;2023-05-16T06:36:06;100145.81;;;12.25;99.91
32789;BME280;19141;48.980;8.410;2023-05-16T06:38:31;100145.91;;;12.31;100.00
32789;BME280;19141;48.980;8.410;2023-05-16T06:40:57;100142.06;;;12.34;99.56
32789;BME280;19141;48.980;8.410;2023-05-16T06:43:22;100147.13;;;12.29;98.90
32789;BME280;19141;48.980;8.410;2023-05-16T06:45:47;100154.94;;;12.30;99.13
32789;BME280;19141;48.980;8.410;2023-05-16T06:48:13;100154.13;;;12.30;99.13
32789;BME280;19141;48.980;8.410;2023-05-16T06:50:39;100156.03;;;12.36;98.64
32789;BME280;19141;48.980;8.410;2023-05-16T06:53:05;100156.44;;;12.33;98.97
32789;BME280;19141;48.980;8.410;2023-05-16T06:55:32;100161.78;;;12.33;98.89
32789;BME280;19141;48.980;8.410;2023-05-16T06:57:57;100158.72;;;12.36;98.66
32789;BME280;19141;48.980;8.410;2023-05-16T07:00:23;100166.09;;;12.34;99.45
32789;BME280;19141;48.980;8.410;2023-05-16T07:02:49;100166.53;;;12.37;98.68
32789;BME280;19141;48.980;8.410;2023-05-16T07:05:14;100163.03;;;12.37;98.64
32789;BME280;19141;48.980;8.410;2023-05-16T07:07:40;100167.13;;;12.33;97.62
32789;BME280;19141;48.980;8.410;2023-05-16T07:10:05;100163.88;;;12.37;98.08
32789;BME280;19141;48.980;8.410;2023-05-16T07:12:31;100156.75;;;12.44;97.74
32789;BME280;19141;48.980;8.410;2023-05-16T07:14:56;100162.28;;;12.43;97.46
32789;BME280;19141;48.980;8.410;2023-05-16T07:17:22;100163.19;;;12.50;97.88
32789;BME280;19141;48.980;8.410;2023-05-16T07:19:48;100160.16;;;12.53;97.89
32789;BME280;19141;48.980;8.410;2023-05-16T07:22:14;100161.00;;;12.54;97.17
32789;BME280;19141;48.980;8.410;2023-05-16T07:24:39;100164.09;;;12.57;96.79
32789;BME280;19141;48.980;8.410;2023-05-16T07:27:05;100173.88;;;12.50;95.87
32789;BME280;19141;48.980;8.410;2023-05-16T07:29:30;100168.63;;;12.57;96.46
32789;BME280;19141;48.980;8.410;2023-05-16T07:31:56;100168.97;;;12.68;96.00
32789;BME280;19141;48.980;8.410;2023-05-16T07:34:21;100175.59;;;12.72;94.67
32789;BME280;19141;48.980;8.410;2023-05-16T07:36:47;100175.88;;;12.63;94.55
32789;BME280;19141;48.980;8.410;2023-05-16T07:39:12;100182.06;;;12.63;93.54
32789;BME280;19141;48.980;8.410;2023-05-16T07:41:38;100181.63;;;12.60;94.10
32789;BME280;19141;48.980;8.410;2023-05-16T07:44:04;100184.38;;;12.66;94.05
32789;BME280;19141;48.980;8.410;2023-05-16T07:46:29;100185.38;;;12.65;93.53
32789;BME280;19141;48.980;8.410;2023-05-16T07:48:55;100180.13;;;12.72;93.77
32789;BME280;19141;48.980;8.410;2023-05-16T07:51:20;100188.22;;;12.64;92.55
32789;BME280;19141;48.980;8.410;2023-05-16T07:53:45;100191.50;;;12.81;92.72
32789;BME280;19141;48.980;8.410;2023-05-16T07:56:11;100188.69;;;12.67;95.01
32789;BME280;19141;48.980;8.410;2023-05-16T07:58:37;100192.75;;;12.63;92.58
32789;BME280;19141;48.980;8.410;2023-05-16T08:01:03;100185.63;;;12.70;91.93
32789;BME280;19141;48.980;8.410;2023-05-16T08:03:28;100191.09;;;12.62;92.18
32789;BME280;19141;48.980;8.410;2023-05-16T08:05:53;100175.44;;;12.59;92.63
32789;BME280;19141;48.980;8.410;2023-05-16T08:08:19;100188.97;;;12.72;92.77
32789;BME280;19141;48.980;8.410;2023-05-16T08:10:44;100189.84;;;12.80;92.05
32789;BME280;19141;48.980;8.410;2023-05-16T08:13:10;100191.88;;;12.77;91.77
32789;BME280;19141;48.980;8.410;2023-05-16T08:15:35;100199.97;;;12.84;91.20
32789;BME280;19141;48.980;8.410;2023-05-16T08:18:01;100199.13;;;12.84;91.35
32789;BME280;19141;48.980;8.410;2023-05-16T08:20:26;100200.97;;;12.83;91.20
32789;BME280;19141;48.980;8.410;2023-05-16T08:22:53;100201.38;;;12.80;91.52
32789;BME280;19141;48.980;8.410;2023-05-16T08:25:18;100196.16;;;12.72;92.13
32789;BME280;19141;48.980;8.410;2023-05-16T08:27:45;100207.00;;;12.85;92.30
32789;BME280;19141;48.980;8.410;2023-05-16T08:30:11;100202.00;;;12.82;92.14
32789;BME280;19141;48.980;8.410;2023-05-16T08:32:37;100196.47;;;12.84;92.44
32789;BME280;19141;48.980;8.410;2023-05-16T08:35:03;100196.94;;;12.87;91.97
32789;BME280;19141;48.980;8.410;2023-05-16T08:37:28;100197.69;;;12.81;91.41
32789;BME280;19141;48.980;8.410;2023-05-16T08:39:53;100199.59;;;12.87;91.60
32789;BME280;19141;48.980;8.410;2023-05-16T08:42:19;100205.97;;;12.86;91.75
32789;BME280;19141;48.980;8.410;2023-05-16T08:44:44;100206.91;;;12.79;91.54
32789;BME280;19141;48.980;8.410;2023-05-16T08:47:12;100208.19;;;12.83;91.28
32789;BME280;19141;48.980;8.410;2023-05-16T08:49:41;100212.13;;;12.87;91.29
32789;BME280;19141;48.980;8.410;2023-05-16T08:52:08;100208.03;;;13.06;89.39
32789;BME280;19141;48.980;8.410;2023-05-16T08:54:34;100209.69;;;12.70;89.59
32789;BME280;19141;48.980;8.410;2023-05-16T08:57:01;100220.34;;;12.85;88.91
32789;BME280;19141;48.980;8.410;2023-05-16T08:59:27;100211.44;;;12.78;88.41
32789;BME280;19141;48.980;8.410;2023-05-16T09:01:54;100209.13;;;12.75;89.67
32789;BME280;19141;48.980;8.410;2023-05-16T09:04:20;100208.41;;;12.66;88.70
32789;BME280;19141;48.980;8.410;2023-05-16T09:06:46;100204.34;;;12.70;88.88
32789;BME280;19141;48.980;8.410;2023-05-16T09:09:12;100214.59;;;12.67;88.84
32789;BME280;19141;48.980;8.410;2023-05-16T09:11:38;100216.94;;;12.76;88.67
32789;BME280;19141;48.980;8.410;2023-05-16T09:14:03;100212.69;;;12.82;90.06
32789;BME280;19141;48.980;8.410;2023-05-16T09:16:29;100217.47;;;12.87;88.83
32789;BME280;19141;48.980;8.410;2023-05-16T09:18:56;100220.97;;;12.87;88.44
32789;BME280;19141;48.980;8.410;2023-05-16T09:21:29;100220.09;;;12.80;88.86
32789;BME280;19141;48.980;8.410;2023-05-16T09:24:01;100214.59;;;12.67;89.16
32789;BME280;19141;48.980;8.410;2023-05-16T09:26:27;100226.28;;;12.66;87.96
32789;BME280;19141;48.980;8.410;2023-05-16T09:28:53;100228.66;;;12.75;88.08
32789;BME280;19141;48.980;8.410;2023-05-16T09:31:24;100234.53;;;12.86;86.95
32789;BME280;19141;48.980;8.410;2023-05-16T09:33:57;100241.81;;;12.77;86.81
32789;BME280;19141;48.980;8.410;2023-05-16T09:36:23;100237.53;;;12.61;88.05
32789;BME280;19141;48.980;8.410;2023-05-16T09:38:52;100243.22;;;12.58;88.42
32789;BME280;19141;48.980;8.410;2023-05-16T09:41:20;100241.50;;;12.65;89.35
32789;BME280;19141;48.980;8.410;2023-05-16T09:43:46;100245.53;;;12.76;88.31
32789;BME280;19141;48.980;8.410;2023-05-16T09:46:15;100239.28;;;12.69;88.77
32789;BME280;19141;48.980;8.410;2023-05-16T09:48:44;100249.84;;;12.92;88.76
32789;BME280;19141;48.980;8.410;2023-05-16T09:51:11;100245.91;;;13.09;89.30
32789;BME280;19141;48.980;8.410;2023-05-16T09:53:37;100239.59;;;13.32;86.18
32789;BME280;19141;48.980;8.410;2023-05-16T09:58:30;100239.88;;;13.93;84.09
32789;BME280;19141;48.980;8.410;2023-05-16T10:00:57;100233.16;;;14.03;81.23
32789;BME280;19141;48.980;8.410;2023-05-16T10:03:24;100232.00;;;13.84;81.06
32789;BME280;19141;48.980;8.410;2023-05-16T10:05:51;100242.38;;;14.22;81.17
32789;BME280;19141;48.980;8.410;2023-05-16T10:08:19;100230.78;;;14.15;78.75
32789;BME280;19141;48.980;8.410;2023-05-16T10:10:51;100240.72;;;14.28;78.50
32789;BME280;19141;48.980;8.410;2023-05-16T10:13:21;100240.53;;;14.29;80.16
32789;BME280;19141;48.980;8.410;2023-05-16T10:15:50;100238.72;;;14.36;78.71
32789;BME280;19141;48.980;8.410;2023-05-16T10:18:20;100242.72;;;14.47;78.54
32789;BME280;19141;48.980;8.410;2023-05-16T10:20:48;100236.22;;;14.28;78.89
32789;BME280;19141;48.980;8.410;2023-05-16T10:23:18;100249.66;;;14.07;80.15
32789;BME280;19141;48.980;8.410;2023-05-16T10:25:48;100245.25;;;13.93;78.68
32789;BME280;19141;48.980;8.410;2023-05-16T10:28:17;100232.34;;;14.03;79.71
32789;BME280;19141;48.980;8.410;2023-05-16T10:30:44;100236.78;;;13.89;80.30
32789;BME280;19141;48.980;8.410;2023-05-16T10:33:12;100241.38;;;13.74;79.08
32789;BME280;19141;48.980;8.410;2023-05-16T10:35:38;100239.94;;;13.71;81.79
32789;BME280;19141;48.980;8.410;2023-05-16T10:38:04;100247.72;;;13.66;80.19
32789;BME280;19141;48.980;8.410;2023-05-16T10:40:31;100255.38;;;13.48;82.38
32789;BME280;19141;48.980;8.410;2023-05-16T10:42:58;100260.97;;;13.53;81.53
32789;BME280;19141;48.980;8.410;2023-05-16T10:45:24;100265.31;;;13.54;80.29
32789;BME280;19141;48.980;8.410;2023-05-16T10:48:09;100244.41;;;13.64;80.68
32789;BME280;19141;48.980;8.410;2023-05-16T10:50:43;100256.66;;;13.52;79.59
32789;BME280;19141;48.980;8.410;2023-05-16T11:01:33;100261.84;;;13.17;80.44
32789;BME280;19141;48.980;8.410;2023-05-16T11:04:08;100267.13;;;12.96;80.79
32789;BME280;19141;48.980;8.410;2023-05-16T11:09:07;100267.25;;;12.88;80.10
32789;BME280;19141;48.980;8.410;2023-05-16T11:14:07;100286.25;;;12.93;81.49
32789;BME280;19141;48.980;8.410;2023-05-16T11:16:34;100285.41;;;12.77;81.04
32789;BME280;19141;48.980;8.410;2023-05-16T11:19:06;100282.81;;;12.84;80.37
32789;BME280;19141;48.980;8.410;2023-05-16T11:22:06;100289.28;;;12.90;79.77
32789;BME280;19141;48.980;8.410;2023-05-16T11:24:33;100287.66;;;13.10;79.43
32789;BME280;19141;48.980;8.410;2023-05-16T11:26:59;100292.19;;;13.24;78.70
32789;BME280;19141;48.980;8.410;2023-05-16T11:29:33;100288.50;;;13.25;79.11
32789;BME280;19141;48.980;8.410;2023-05-16T11:31:59;100292.84;;;13.12;77.79
32789;BME280;19141;48.980;8.410;2023-05-16T11:34:25;100295.69;;;13.10;76.75
32789;BME280;19141;48.980;8.410;2023-05-16T11:36:51;100294.56;;;13.19;76.60
32789;BME280;19141;48.980;8.410;2023-05-16T11:39:16;100295.31;;;13.13;78.97
32789;BME280;19141;48.980;8.410;2023-05-16T11:41:43;100298.59;;;13.30;75.81
32789;BME280;19141;48.980;8.410;2023-05-16T11:44:11;100286.59;;;13.41;75.03
32789;BME280;19141;48.980;8.410;2023-05-16T11:46:38;100290.56;;;13.45;74.85
32789;BME280;19141;48.980;8.410;2023-05-16T11:49:05;100292.56;;;13.43;75.49
32789;BME280;19141;48.980;8.410;2023-05-16T11:51:31;100294.53;;;13.34;75.07
32789;BME280;19141;48.980;8.410;2023-05-16T11:53:59;100288.50;;;13.25;75.65
32789;BME280;19141;48.980;8.410;2023-05-16T11:56:24;100301.09;;;13.17;75.63
32789;BME280;19141;48.980;8.410;2023-05-16T11:58:50;100301.69;;;12.97;75.44
32789;BME280;19141;48.980;8.410;2023-05-16T12:01:16;100301.34;;;13.00;76.72
32789;BME280;19141;48.980;8.410;2023-05-16T12:03:41;100309.91;;;12.96;75.25
32789;BME280;19141;48.980;8.410;2023-05-16T12:06:07;100312.56;;;13.25;73.52
32789;BME280;19141;48.980;8.410;2023-05-16T12:08:32;100316.28;;;12.95;75.43
32789;BME280;19141;48.980;8.410;2023-05-16T12:10:59;100310.84;;;12.88;75.15
32789;BME280;19141;48.980;8.410;2023-05-16T12:13:24;100318.31;;;12.93;74.74
32789;BME280;19141;48.980;8.410;2023-05-16T12:15:51;100319.34;;;12.92;76.26
32789;BME280;19141;48.980;8.410;2023-05-16T12:18:19;100328.72;;;13.02;74.67
32789;BME280;19141;48.980;8.410;2023-05-16T12:20:45;100328.91;;;13.01;74.25
32789;BME280;19141;48.980;8.410;2023-05-16T12:23:12;100316.56;;;13.00;74.14
32789;BME280;19141;48.980;8.410;2023-05-16T12:25:43;100324.69;;;12.92;73.88
32789;BME280;19141;48.980;8.410;2023-05-16T12:28:11;100323.38;;;13.02;73.45
32789;BME280;19141;48.980;8.410;2023-05-16T12:30:40;100338.69;;;12.94;74.41
32789;BME280;19141;48.980;8.410;2023-05-16T12:33:11;100338.97;;;12.99;77.00
32789;BME280;19141;48.980;8.410;2023-05-16T12:35:42;100338.59;;;13.02;77.70
32789;BME280;19141;48.980;8.410;2023-05-16T12:38:10;100339.78;;;12.99;78.28
32789;BME280;19141;48.980;8.410;2023-05-16T12:40:37;100345.41;;;13.04;79.02
32789;BME280;19141;48.980;8.410;2023-05-16T12:43:04;100343.38;;;13.07;77.94
32789;BME280;19141;48.980;8.410;2023-05-16T12:45:36;100348.41;;;12.65;78.64
32789;BME280;19141;48.980;8.410;2023-05-16T12:48:11;100342.03;;;12.81;79.29
32789;BME280;19141;48.980;8.410;2023-05-16T12:50:38;100346.34;;;12.82;79.51
32789;BME280;19141;48.980;8.410;2023-05-16T12:53:03;100344.69;;;12.96;77.74
32789;BME280;19141;48.980;8.410;2023-05-16T12:55:28;100348.75;;;12.92;78.13
32789;BME280;19141;48.980;8.410;2023-05-16T12:57:54;100355.00;;;12.99;78.66
32789;BME280;19141;48.980;8.410;2023-05-16T13:00:21;100350.53;;;12.85;77.69
32789;BME280;19141;48.980;8.410;2023-05-16T13:02:47;100365.88;;;12.97;77.34
32789;BME280;19141;48.980;8.410;2023-05-16T13:05:13;100358.69;;;13.13;77.13
32789;BME280;19141;48.980;8.410;2023-05-16T13:07:39;100363.28;;;13.19;75.81
32789;BME280;19141;48.980;8.410;2023-05-16T13:10:09;100371.34;;;13.04;76.92
32789;BME280;19141;48.980;8.410;2023-05-16T13:12:39;100376.09;;;13.09;74.98
32789;BME280;19141;48.980;8.410;2023-05-16T13:15:06;100367.81;;;13.18;76.69
32789;BME280;19141;48.980;8.410;2023-05-16T13:17:35;100377.75;;;13.39;76.18
32789;BME280;19141;48.980;8.410;2023-05-16T13:20:02;100363.53;;;13.39;73.67
32789;BME280;19141;48.980;8.410;2023-05-16T13:22:36;100390.16;;;13.25;73.94
32789;BME280;19141;48.980;8.410;2023-05-16T13:25:02;100383.50;;;13.21;73.21
32789;BME280;19141;48.980;8.410;2023-05-16T13:27:29;100379.72;;;13.30;71.55
32789;BME280;19141;48.980;8.410;2023-05-16T13:29:55;100376.09;;;13.23;72.28
32789;BME280;19141;48.980;8.410;2023-05-16T13:32:20;100375.13;;;13.24;70.92
32789;BME280;19141;48.980;8.410;2023-05-16T13:34:46;100380.31;;;13.47;70.14
32789;BME280;19141;48.980;8.410;2023-05-16T13:37:11;100378.25;;;13.64;66.70
32789;BME280;19141;48.980;8.410;2023-05-16T13:39:37;100381.53;;;13.66;65.73
32789;BME280;19141;48.980;8.410;2023-05-16T13:42:02;100380.72;;;13.29;66.61
32789;BME280;19141;48.980;8.410;2023-05-16T13:44:28;100384.94;;;13.39;67.94
32789;BME280;19141;48.980;8.410;2023-05-16T13:46:53;100385.19;;;13.58;66.47
32789;BME280;19141;48.980;8.410;2023-05-16T13:49:19;100383.38;;;13.44;65.67
32789;BME280;19141;48.980;8.410;2023-05-16T13:51:45;100377.13;;;13.37;65.68
32789;BME280;19141;48.980;8.410;2023-05-16T13:54:11;100372.34;;;13.54;65.27
32789;BME280;19141;48.980;8.410;2023-05-16T13:56:36;100379.06;;;13.28;65.33
32789;BME280;19141;48.980;8.410;2023-05-16T13:59:02;100377.34;;;13.57;64.47
32789;BME280;19141;48.980;8.410;2023-05-16T14:01:27;100377.97;;;13.59;63.84
32789;BME280;19141;48.980;8.410;2023-05-16T14:03:53;100387.59;;;13.75;62.60
32789;BME280;19141;48.980;8.410;2023-05-16T14:06:18;100370.22;;;13.64;60.20
32789;BME280;19141;48.980;8.410;2023-05-16T14:08:43;100377.41;;;13.64;61.42
32789;BME280;19141;48.980;8.410;2023-05-16T14:11:09;100362.19;;;13.64;60.08
32789;BME280;19141;48.980;8.410;2023-05-16T14:13:34;100377.28;;;13.72;59.93
32789;BME280;19141;48.980;8.410;2023-05-16T14:16:00;100375.81;;;13.69;60.62
32789;BME280;19141;48.980;8.410;2023-05-16T14:18:26;100376.47;;;13.71;62.39
32789;BME280;19141;48.980;8.410;2023-05-16T14:20:51;100369.19;;;13.65;60.78
32789;BME280;19141;48.980;8.410;2023-05-16T14:23:20;100383.47;;;13.72;60.14
32789;BME280;19141;48.980;8.410;2023-05-16T14:25:45;100385.03;;;13.88;60.18
32789;BME280;19141;48.980;8.410;2023-05-16T14:28:11;100391.56;;;14.00;59.83
32789;BME280;19141;48.980;8.410;2023-05-16T14:30:37;100379.97;;;13.72;59.01
32789;BME280;19141;48.980;8.410;2023-05-16T14:33:02;100381.19;;;13.91;59.34
32789;BME280;19141;48.980;8.410;2023-05-16T14:35:28;100378.44;;;14.05;59.93
32789;BME280;19141;48.980;8.410;2023-05-16T14:37:53;100378.72;;;14.17;58.16
32789;BME280;19141;48.980;8.410;2023-05-16T14:40:19;100372.03;;;14.06;57.31
32789;BME280;19141;48.980;8.410;2023-05-16T14:42:45;100381.38;;;14.38;57.31
32789;BME280;19141;48.980;8.410;2023-05-16T14:45:11;100377.81;;;14.31;56.73
32789;BME280;19141;48.980;8.410;2023-05-16T14:47:36;100377.84;;;14.10;55.25
32789;BME280;19141;48.980;8.410;2023-05-16T14:50:02;100370.66;;;14.10;52.83
32789;BME280;19141;48.980;8.410;2023-05-16T14:52:28;100380.38;;;14.18;54.41
32789;BME280;19141;48.980;8.410;2023-05-16T14:54:53;100381.59;;;13.94;55.15
32789;BME280;19141;48.980;8.410;2023-05-16T14:57:18;100377.34;;;14.00;56.30
32789;BME280;19141;48.980;8.410;2023-05-16T14:59:44;100376.97;;;14.03;54.14
32789;BME280;19141;48.980;8.410;2023-05-16T15:02:11;100377.34;;;14.00;53.99
32789;BME280;19141;48.980;8.410;2023-05-16T15:04:36;100383.09;;;13.97;54.26
32789;BME280;19141;48.980;8.410;2023-05-16T15:07:01;100383.41;;;13.87;53.35
32789;BME280;19141;48.980;8.410;2023-05-16T15:09:27;100378.19;;;13.79;53.37
32789;BME280;19141;48.980;8.410;2023-05-16T15:11:52;100369.44;;;13.70;53.13
32789;BME280;19141;48.980;8.410;2023-05-16T15:14:17;100368.03;;;13.74;53.10
32789;BME280;19141;48.980;8.410;2023-05-16T15:16:43;100367.13;;;13.89;54.94
32789;BME280;19141;48.980;8.410;2023-05-16T15:19:08;100365.59;;;14.01;52.71
32789;BME280;19141;48.980;8.410;2023-05-16T15:21:34;100363.88;;;13.93;52.66
32789;BME280;19141;48.980;8.410;2023-05-16T15:23:59;100360.84;;;13.96;53.22
32789;BME280;19141;48.980;8.410;2023-05-16T15:26:25;100364.34;;;13.97;53.23
32789;BME280;19141;48.980;8.410;2023-05-16T15:28:50;100362.22;;;14.13;52.99
32789;BME280;19141;48.980;8.410;2023-05-16T15:31:16;100369.47;;;14.20;52.64
32789;BME280;19141;48.980;8.410;2023-05-16T15:33:41;100366.78;;;14.20;53.31
32789;BME280;19141;48.980;8.410;2023-05-16T15:36:07;100369.94;;;14.23;54.02
32789;BME280;19141;48.980;8.410;2023-05-16T15:38:32;100378.34;;;14.20;52.07
32789;BME280;19141;48.980;8.410;2023-05-16T15:40:58;100373.22;;;14.25;51.63
32789;BME280;19141;48.980;8.410;2023-05-16T15:43:23;100371.38;;;14.26;51.91
32789;BME280;19141;48.980;8.410;2023-05-16T15:45:48;100365.69;;;14.35;51.78
32789;BME280;19141;48.980;8.410;2023-05-16T15:48:14;100366.03;;;14.26;52.05
32789;BME280;19141;48.980;8.410;2023-05-16T15:50:39;100365.00;;;14.27;52.00
32789;BME280;19141;48.980;8.410;2023-05-16T15:53:06;100359.16;;;14.17;52.80
32789;BME280;19141;48.980;8.410;2023-05-16T15:55:31;100356.84;;;14.35;53.65
32789;BME280;19141;48.980;8.410;2023-05-16T15:57:56;100357.06;;;14.40;54.04
32789;BME280;19141;48.980;8.410;2023-05-16T16:00:25;100359.97;;;14.45;52.91
32789;BME280;19141;48.980;8.410;2023-05-16T16:02:51;100358.00;;;14.54;53.49
32789;BME280;19141;48.980;8.410;2023-05-16T16:05:17;100357.47;;;14.65;52.88
32789;BME280;19141;48.980;8.410;2023-05-16T16:07:42;100359.34;;;14.71;53.25
32789;BME280;19141;48.980;8.410;2023-05-16T16:10:08;100355.88;;;14.77;51.57
32789;BME280;19141;48.980;8.410;2023-05-16T16:12:34;100357.28;;;14.73;52.23
32789;BME280;19141;48.980;8.410;2023-05-16T16:15:01;100361.06;;;14.85;52.60
32789;BME280;19141;48.980;8.410;2023-05-16T16:17:26;100360.69;;;14.88;52.09
32789;BME280;19141;48.980;8.410;2023-05-16T16:19:52;100351.38;;;14.84;52.58
32789;BME280;19141;48.980;8.410;2023-05-16T16:22:17;100350.97;;;14.81;51.96
32789;BME280;19141;48.980;8.410;2023-05-16T16:24:43;100348.28;;;14.81;51.68
32789;BME280;19141;48.980;8.410;2023-05-16T16:27:08;100352.00;;;14.86;52.13
32789;BME280;19141;48.980;8.410;2023-05-16T16:29:33;100343.72;;;14.75;49.80
32789;BME280;19141;48.980;8.410;2023-05-16T16:31:59;100348.66;;;14.78;50.37
32789;BME280;19141;48.980;8.410;2023-05-16T16:34:24;100343.00;;;14.94;50.18
32789;BME280;19141;48.980;8.410;2023-05-16T16:36:50;100351.38;;;14.84;50.55
32789;BME280;19141;48.980;8.410;2023-05-16T16:39:15;100355.75;;;14.92;50.98
32789;BME280;19141;48.980;8.410;2023-05-16T16:41:41;100344.19;;;14.91;49.40
32789;BME280;19141;48.980;8.410;2023-05-16T16:44:06;100351.22;;;14.92;49.94
32789;BME280;19141;48.980;8.410;2023-05-16T16:46:32;100349.78;;;14.97;48.95
32789;BME280;19141;48.980;8.410;2023-05-16T16:48:57;100345.47;;;14.96;47.87
32789;BME280;19141;48.980;8.410;2023-05-16T16:51:22;100350.41;;;14.99;47.94
32789;BME280;19141;48.980;8.410;2023-05-16T16:53:48;100352.69;;;14.95;46.12
32789;BME280;19141;48.980;8.410;2023-05-16T16:56:13;100356.41;;;14.94;45.61
32789;BME280;19141;48.980;8.410;2023-05-16T16:58:39;100348.34;;;14.94;45.75
32789;BME280;19141;48.980;8.410;2023-05-16T17:01:04;100355.34;;;14.88;46.26
32789;BME280;19141;48.980;8.410;2023-05-16T17:03:31;100354.53;;;14.95;46.01
32789;BME280;19141;48.980;8.410;2023-05-16T17:05:56;100359.13;;;15.01;45.21
32789;BME280;19141;48.980;8.410;2023-05-16T17:08:21;100363.00;;;14.98;45.62
32789;BME280;19141;48.980;8.410;2023-05-16T17:10:47;100370.25;;;15.04;45.57
32789;BME280;19141;48.980;8.410;2023-05-16T17:13:12;100366.13;;;15.02;44.63
32789;BME280;19141;48.980;8.410;2023-05-16T17:15:39;100362.63;;;15.01;44.88
32789;BME280;19141;48.980;8.410;2023-05-16T17:18:04;100372.31;;;15.02;44.99
32789;BME280;19141;48.980;8.410;2023-05-16T17:20:32;100376.31;;;15.13;45.03